Time;durP1;ratioP1;P1;durP2;ratioP2;P2;SDS_P1;SDS_P2;PMS_P1;PMS_P2;Temp;Humidity;BMP_temperature;BMP_pressure;BME280_temperature;BME280_humidity;BME280_pressure;Samples;Min_cycle;Max_cycle;Signal;HPM_P1;HPM_P2
2022/01/04 00:01:13;;;;;;;1.17;0.65;;;;;;;;;;4994262;28;20381;-69
2022/01/04 00:03:42;;;;;;;2.30;0.73;;;;;;;;;;4995493;28;20565;-69
2022/01/04 00:06:13;;;;;;;1.20;0.73;;;;;;;;;;4996400;28;20053;-70
2022/01/04 00:08:41;;;;;;;3.50;1.00;;;;;;;;;;4996479;28;20149;-70
2022/01/04 00:11:18;;;;;;;3.33;0.73;;;;;;;;;;4982098;28;20057;-70
2022/01/04 00:13:54;;;;;;;1.35;0.50;;;;;;;;;;3293627;28;10021488;-69
2022/01/04 00:16:22;;;;;;;2.78;0.70;;;;;;;;;;2237667;28;10001952;-68
2022/01/04 00:18:50;;;;;;;0.60;0.50;;;;;;;;;;4995647;28;20562;-69
2022/01/04 00:21:19;;;;;;;2.63;0.60;;;;;;;;;;4995422;28;20498;-69
2022/01/04 00:23:47;;;;;;;2.10;0.80;;;;;;;;;;4991565;28;20049;-69
2022/01/04 00:26:17;;;;;;;1.25;0.60;;;;;;;;;;4994675;28;20137;-69
2022/01/04 00:28:45;;;;;;;1.90;0.70;;;;;;;;;;4994201;28;20129;-69
2022/01/04 00:31:18;;;;;;;2.20;0.60;;;;;;;;;;4995479;28;20165;-70
2022/01/04 00:33:46;;;;;;;1.23;0.50;;;;;;;;;;4995335;28;20088;-69
2022/01/04 00:36:15;;;;;;;2.10;0.50;;;;;;;;;;4995694;28;20046;-70
2022/01/04 00:38:43;;;;;;;2.05;0.50;;;;;;;;;;4995618;28;20053;-68
2022/01/04 00:41:16;;;;;;;0.52;0.47;;;;;;;;;;4994343;28;20043;-68
2022/01/04 00:43:45;;;;;;;0.40;0.40;;;;;;;;;;4989337;28;20145;-68
2022/01/04 00:46:16;;;;;;;1.65;0.50;;;;;;;;;;4995767;28;20403;-68
2022/01/04 00:51:32;;;;;;;1.95;0.55;;;;;;;;;;4995616;28;20090;-68
2022/01/04 00:54:00;;;;;;;1.00;0.52;;;;;;;;;;4995679;28;20334;-68
2022/01/04 00:56:29;;;;;;;1.30;0.63;;;;;;;;;;4989858;28;20588;-67
2022/01/04 00:58:58;;;;;;;3.22;0.60;;;;;;;;;;4992230;28;20572;-68
2022/01/04 01:01:26;;;;;;;1.38;0.40;;;;;;;;;;4992816;28;20145;-68
2022/01/04 01:03:55;;;;;;;1.10;0.50;;;;;;;;;;4994623;28;20061;-68
2022/01/04 01:06:23;;;;;;;0.75;0.50;;;;;;;;;;4996152;28;20042;-67
2022/01/04 01:08:52;;;;;;;0.82;0.40;;;;;;;;;;4993379;28;20122;-68
2022/01/04 01:11:21;;;;;;;1.55;0.52;;;;;;;;;;4991977;28;20093;-68
2022/01/04 01:13:51;;;;;;;1.33;0.45;;;;;;;;;;4992548;28;20137;-68
2022/01/04 01:16:19;;;;;;;2.72;0.57;;;;;;;;;;4985716;28;20077;-67
2022/01/04 01:18:48;;;;;;;2.13;0.30;;;;;;;;;;4990830;28;20464;-68
2022/01/04 01:21:19;;;;;;;1.60;0.60;;;;;;;;;;4991738;28;20241;-68
2022/01/04 01:23:47;;;;;;;1.52;0.50;;;;;;;;;;4992443;28;20054;-68
2022/01/04 01:26:16;;;;;;;1.08;0.60;;;;;;;;;;4991749;28;20133;-68
2022/01/04 01:28:44;;;;;;;0.73;0.50;;;;;;;;;;4991363;28;20593;-67
2022/01/04 01:31:20;;;;;;;2.25;0.40;;;;;;;;;;4990750;28;20046;-68
2022/01/04 01:33:49;;;;;;;0.32;0.30;;;;;;;;;;4979911;28;20046;-67
2022/01/04 01:36:17;;;;;;;3.33;0.40;;;;;;;;;;4979578;28;20150;-68
2022/01/04 01:38:46;;;;;;;1.02;0.38;;;;;;;;;;4978229;28;20051;-68
2022/01/04 01:41:20;;;;;;;1.42;0.60;;;;;;;;;;4991178;28;20060;-68
2022/01/04 01:43:48;;;;;;;0.57;0.43;;;;;;;;;;4991247;28;20130;-68
2022/01/04 01:46:17;;;;;;;1.48;0.60;;;;;;;;;;4991499;28;20133;-68
2022/01/04 01:48:46;;;;;;;0.55;0.30;;;;;;;;;;4988278;28;20104;-68
2022/01/04 01:51:18;;;;;;;0.93;0.35;;;;;;;;;;4990661;28;20060;-68
2022/01/04 01:53:47;;;;;;;1.10;0.57;;;;;;;;;;4989945;28;20094;-69
2022/01/04 01:56:15;;;;;;;1.95;1.02;;;;;;;;;;4991958;28;20061;-69
2022/01/04 01:58:43;;;;;;;2.30;0.93;;;;;;;;;;4989736;28;20042;-68
2022/01/04 02:01:14;;;;;;;1.00;0.70;;;;;;;;;;4991075;28;20074;-68
2022/01/04 02:03:43;;;;;;;1.75;0.50;;;;;;;;;;4990700;28;20471;-69
2022/01/04 02:06:21;;;;;;;1.70;0.57;;;;;;;;;;4985699;28;20137;-68
2022/01/04 02:08:49;;;;;;;1.38;0.52;;;;;;;;;;4987775;28;20105;-68
2022/01/04 02:11:19;;;;;;;2.45;0.60;;;;;;;;;;4991247;28;20046;-68
2022/01/04 02:13:47;;;;;;;0.60;0.40;;;;;;;;;;4991145;28;20196;-68
2022/01/04 02:16:15;;;;;;;0.88;0.40;;;;;;;;;;4991218;28;20476;-68
2022/01/04 02:18:43;;;;;;;1.80;0.52;;;;;;;;;;4991076;28;20057;-68
2022/01/04 02:21:16;;;;;;;1.35;0.57;;;;;;;;;;4990786;28;20482;-68
2022/01/04 02:23:44;;;;;;;1.15;0.65;;;;;;;;;;4990103;28;20046;-67
2022/01/04 02:26:19;;;;;;;0.95;0.32;;;;;;;;;;4989661;28;20050;-68
2022/01/04 02:28:48;;;;;;;0.70;0.43;;;;;;;;;;4989635;28;20125;-68
2022/01/04 02:31:16;;;;;;;2.97;0.45;;;;;;;;;;4989392;28;20142;-68
2022/01/04 02:33:44;;;;;;;1.00;0.50;;;;;;;;;;4990323;28;20074;-68
2022/01/04 02:36:17;;;;;;;0.70;0.40;;;;;;;;;;4989416;28;20391;-67
2022/01/04 02:38:45;;;;;;;0.45;0.32;;;;;;;;;;4983093;28;20121;-68
2022/01/04 02:41:16;;;;;;;0.47;0.30;;;;;;;;;;4989517;28;20528;-68
2022/01/04 02:43:45;;;;;;;1.48;0.50;;;;;;;;;;4982838;28;20125;-68
2022/01/04 02:46:16;;;;;;;1.50;0.43;;;;;;;;;;4990925;28;20398;-68
2022/01/04 02:48:46;;;;;;;1.77;0.70;;;;;;;;;;4988557;28;20554;-69
2022/01/04 02:51:18;;;;;;;1.27;0.65;;;;;;;;;;4989877;28;20149;-68
2022/01/04 02:53:47;;;;;;;0.70;0.50;;;;;;;;;;4989947;28;20050;-69
2022/01/04 02:56:16;;;;;;;1.10;0.40;;;;;;;;;;4991110;28;20050;-68
2022/01/04 02:58:44;;;;;;;0.43;0.35;;;;;;;;;;4988780;28;20212;-67
2022/01/04 03:01:15;;;;;;;0.63;0.47;;;;;;;;;;4988664;28;20057;-68
2022/01/04 03:03:44;;;;;;;3.63;0.30;;;;;;;;;;4988513;28;20402;-68
2022/01/04 03:06:16;;;;;;;0.30;0.30;;;;;;;;;;4990706;28;20149;-68
2022/01/04 03:08:44;;;;;;;0.50;0.40;;;;;;;;;;4989953;28;20565;-68
2022/01/04 03:11:17;;;;;;;3.13;0.65;;;;;;;;;;4989580;28;20086;-68
2022/01/04 03:13:45;;;;;;;0.68;0.40;;;;;;;;;;4988671;28;20462;-69
2022/01/04 03:16:19;;;;;;;0.63;0.22;;;;;;;;;;4981098;28;20181;-69
2022/01/04 03:19:03;;;;;;;1.85;0.55;;;;;;;;;;4988530;28;20054;-69
2022/01/04 03:21:31;;;;;;;2.45;0.50;;;;;;;;;;4989223;28;20410;-69
2022/01/04 03:23:59;;;;;;;0.68;0.30;;;;;;;;;;4989399;28;20078;-69
2022/01/04 03:26:29;;;;;;;1.10;0.60;;;;;;;;;;4984337;28;20097;-68
2022/01/04 03:28:58;;;;;;;1.65;0.50;;;;;;;;;;4988687;28;20134;-68
2022/01/04 03:31:29;;;;;;;2.75;0.30;;;;;;;;;;4988270;28;20086;-69
2022/01/04 03:33:57;;;;;;;0.50;0.32;;;;;;;;;;4988734;28;20490;-68
2022/01/04 03:36:26;;;;;;;0.45;0.28;;;;;;;;;;4989722;28;20153;-69
2022/01/04 03:38:55;;;;;;;1.73;0.57;;;;;;;;;;4989331;28;20443;-68
2022/01/04 03:41:23;;;;;;;2.53;0.32;;;;;;;;;;4989353;28;20461;-68
2022/01/04 03:43:54;;;;;;;1.67;0.40;;;;;;;;;;4988143;28;20061;-69
2022/01/04 03:46:22;;;;;;;0.68;0.40;;;;;;;;;;4989116;28;20413;-68
2022/01/04 03:48:51;;;;;;;0.98;0.40;;;;;;;;;;4989122;28;20081;-68
2022/01/04 03:51:20;;;;;;;1.40;0.40;;;;;;;;;;4988346;28;20078;-68
2022/01/04 03:53:48;;;;;;;1.13;0.45;;;;;;;;;;4988612;28;20129;-69
2022/01/04 03:56:19;;;;;;;1.05;0.45;;;;;;;;;;4989452;28;20046;-68
2022/01/04 03:58:47;;;;;;;0.50;0.50;;;;;;;;;;4988650;28;20050;-68
2022/01/04 04:01:19;;;;;;;0.63;0.38;;;;;;;;;;4988409;28;20062;-68
2022/01/04 04:03:48;;;;;;;0.95;0.50;;;;;;;;;;4989257;28;20279;-68
2022/01/04 04:06:16;;;;;;;0.63;0.30;;;;;;;;;;4988776;28;20401;-69
2022/01/04 04:08:44;;;;;;;0.77;0.55;;;;;;;;;;4985983;28;20137;-68
2022/01/04 04:11:19;;;;;;;0.82;0.40;;;;;;;;;;4986069;28;20137;-68
2022/01/04 04:13:47;;;;;;;1.25;0.50;;;;;;;;;;4986299;28;20056;-68
2022/01/04 04:16:23;;;;;;;0.40;0.30;;;;;;;;;;4987680;28;20047;-68
2022/01/04 04:18:51;;;;;;;0.50;0.40;;;;;;;;;;4987453;28;20082;-69
2022/01/04 04:21:19;;;;;;;1.27;0.45;;;;;;;;;;4986370;28;20304;-68
2022/01/04 04:23:48;;;;;;;1.48;0.50;;;;;;;;;;4986714;28;20129;-68
2022/01/04 04:26:19;;;;;;;0.98;0.40;;;;;;;;;;4986466;28;20659;-69
2022/01/04 04:28:48;;;;;;;2.60;0.50;;;;;;;;;;4987454;28;20145;-68
2022/01/04 04:31:23;;;;;;;1.83;0.50;;;;;;;;;;4986629;28;20137;-68
2022/01/04 04:34:09;;;;;;;0.53;0.42;;;;;;;;;;1911820;28;10022656;-70
2022/01/04 04:36:38;;;;;;;1.25;0.40;;;;;;;;;;3954665;28;10001151;-72
2022/01/04 04:39:06;;;;;;;0.98;0.45;;;;;;;;;;4989800;28;20137;-68
2022/01/04 04:41:34;;;;;;;1.33;0.50;;;;;;;;;;4984904;28;20141;-73
2022/01/04 04:44:03;;;;;;;3.20;0.75;;;;;;;;;;4988033;28;20145;-70
2022/01/04 04:46:32;;;;;;;2.65;0.52;;;;;;;;;;4993331;28;20064;-69
2022/01/04 04:49:01;;;;;;;1.90;0.52;;;;;;;;;;4992390;28;20058;-69
2022/01/04 04:51:29;;;;;;;1.05;0.57;;;;;;;;;;4992549;28;20482;-68
2022/01/04 04:53:57;;;;;;;2.00;0.60;;;;;;;;;;4992332;28;20064;-69
2022/01/04 04:56:25;;;;;;;1.92;0.50;;;;;;;;;;4992896;28;20578;-69
2022/01/04 04:58:54;;;;;;;2.08;0.60;;;;;;;;;;4986405;28;20078;-68
2022/01/04 05:01:22;;;;;;;2.65;0.70;;;;;;;;;;4990046;28;20046;-69
2022/01/04 05:03:52;;;;;;;0.75;0.52;;;;;;;;;;4991521;28;20078;-70
2022/01/04 05:06:20;;;;;;;2.47;0.80;;;;;;;;;;4991335;28;20055;-70
2022/01/04 05:08:49;;;;;;;1.77;0.63;;;;;;;;;;4987848;28;20049;-68
2022/01/04 05:11:17;;;;;;;4.57;1.20;;;;;;;;;;4989586;28;20133;-70
2022/01/04 05:13:45;;;;;;;2.28;0.60;;;;;;;;;;4989984;28;20136;-68
2022/01/04 05:16:13;;;;;;;0.77;0.50;;;;;;;;;;4990403;28;20137;-69
2022/01/04 05:18:42;;;;;;;2.00;0.80;;;;;;;;;;4990825;28;20053;-68
2022/01/04 05:21:14;;;;;;;1.05;0.57;;;;;;;;;;4985738;28;20533;-69
2022/01/04 05:23:43;;;;;;;2.97;0.60;;;;;;;;;;4982915;28;20560;-69
2022/01/04 05:26:11;;;;;;;0.98;0.70;;;;;;;;;;4992242;28;20079;-68
2022/01/04 05:28:42;;;;;;;3.97;0.60;;;;;;;;;;4990136;28;20092;-70
2022/01/04 05:31:10;;;;;;;3.25;0.80;;;;;;;;;;4991869;28;20050;-71
2022/01/04 05:33:38;;;;;;;1.90;0.82;;;;;;;;;;4988763;28;20154;-67
2022/01/04 05:36:14;;;;;;;1.65;0.50;;;;;;;;;;4991699;28;20058;-68
2022/01/04 05:38:43;;;;;;;1.60;0.70;;;;;;;;;;4989285;28;20125;-68
2022/01/04 05:41:20;;;;;;;4.60;0.82;;;;;;;;;;4990380;28;20495;-69
2022/01/04 05:43:48;;;;;;;1.83;0.63;;;;;;;;;;4991094;28;20129;-68
2022/01/04 05:46:25;;;;;;;0.70;0.60;;;;;;;;;;4991829;28;20137;-69
2022/01/04 05:48:54;;;;;;;1.75;0.50;;;;;;;;;;4989299;28;20346;-67
2022/01/04 05:51:23;;;;;;;1.02;0.60;;;;;;;;;;4983631;28;20153;-68
2022/01/04 05:53:52;;;;;;;3.20;0.75;;;;;;;;;;4991625;28;20124;-69
2022/01/04 05:56:26;;;;;;;1.75;0.82;;;;;;;;;;4991096;28;20137;-68
2022/01/04 05:58:54;;;;;;;5.32;1.15;;;;;;;;;;4991112;28;20077;-68
2022/01/04 06:01:23;;;;;;;5.38;1.05;;;;;;;;;;4990882;28;20057;-68
2022/01/04 06:03:51;;;;;;;2.80;0.80;;;;;;;;;;4990915;28;20042;-68
2022/01/04 06:06:20;;;;;;;1.50;0.80;;;;;;;;;;4989703;28;20437;-68
2022/01/04 06:08:50;;;;;;;1.85;0.70;;;;;;;;;;4987325;28;20520;-69
2022/01/04 06:11:45;;;;;;;7.18;0.80;;;;;;;;;;4990212;28;20298;-68
2022/01/04 06:16:59;;;;;;;2.28;0.80;;;;;;;;;;4990940;28;20137;-68
2022/01/04 06:19:28;;;;;;;2.20;0.80;;;;;;;;;;4991425;28;20050;-67
2022/01/04 06:21:57;;;;;;;3.00;0.82;;;;;;;;;;4989378;28;20042;-67
2022/01/04 06:24:27;;;;;;;1.77;0.82;;;;;;;;;;4984836;28;20390;-67
2022/01/04 06:26:55;;;;;;;1.02;0.70;;;;;;;;;;4990115;28;20408;-67
2022/01/04 06:29:24;;;;;;;1.25;1.10;;;;;;;;;;4990335;28;20051;-71
2022/01/04 06:31:52;;;;;;;1.92;0.90;;;;;;;;;;4989994;28;20056;-68
2022/01/04 06:34:21;;;;;;;2.22;0.85;;;;;;;;;;4988813;28;20133;-71
2022/01/04 06:36:49;;;;;;;2.00;0.90;;;;;;;;;;4986620;28;20517;-67
2022/01/04 06:39:18;;;;;;;1.90;0.63;;;;;;;;;;4991345;28;20073;-70
2022/01/04 06:41:47;;;;;;;2.85;0.90;;;;;;;;;;4989001;28;20141;-68
2022/01/04 06:44:16;;;;;;;1.08;0.80;;;;;;;;;;4990086;28;20108;-67
2022/01/04 06:46:45;;;;;;;4.30;0.73;;;;;;;;;;4989788;28;20473;-68
2022/01/04 06:49:15;;;;;;;2.90;0.90;;;;;;;;;;4985279;28;20046;-67
2022/01/04 06:51:43;;;;;;;1.13;0.60;;;;;;;;;;4982412;28;20129;-68
2022/01/04 06:54:12;;;;;;;2.33;0.60;;;;;;;;;;4989882;28;20451;-68
2022/01/04 06:56:41;;;;;;;8.73;0.88;;;;;;;;;;4990104;28;20129;-68
2022/01/04 06:59:11;;;;;;;3.60;0.70;;;;;;;;;;4989562;28;20565;-67
2022/01/04 07:01:39;;;;;;;3.72;0.70;;;;;;;;;;4989139;28;20121;-68
2022/01/04 07:04:08;;;;;;;1.60;0.73;;;;;;;;;;4986143;28;20482;-67
2022/01/04 07:06:36;;;;;;;1.30;0.98;;;;;;;;;;4986436;28;20138;-67
2022/01/04 07:09:06;;;;;;;2.78;1.00;;;;;;;;;;4989940;28;20137;-67
2022/01/04 07:11:35;;;;;;;1.88;1.00;;;;;;;;;;4988696;28;20054;-68
2022/01/04 07:14:03;;;;;;;3.92;0.98;;;;;;;;;;4990650;28;20046;-67
2022/01/04 07:16:33;;;;;;;3.05;1.52;;;;;;;;;;4983571;28;20561;-68
2022/01/04 07:19:02;;;;;;;2.50;1.25;;;;;;;;;;4986863;28;20077;-68
2022/01/04 07:21:30;;;;;;;2.10;0.90;;;;;;;;;;4988638;28;20458;-68
2022/01/04 07:24:01;;;;;;;2.80;0.93;;;;;;;;;;4988444;28;20068;-67
2022/01/04 07:26:30;;;;;;;1.67;0.90;;;;;;;;;;4989612;28;20054;-67
2022/01/04 07:28:58;;;;;;;2.53;0.75;;;;;;;;;;4988708;28;20046;-68
2022/01/04 07:31:27;;;;;;;2.40;1.00;;;;;;;;;;4986294;28;20565;-68
2022/01/04 07:33:57;;;;;;;4.63;1.00;;;;;;;;;;4929404;28;20050;-68
2022/01/04 07:36:25;;;;;;;3.00;0.90;;;;;;;;;;320837;28;10022819;-68
2022/01/04 07:38:54;;;;;;;2.28;0.80;;;;;;;;;;4975442;28;20980;-68
2022/01/04 07:41:26;;;;;;;2.05;1.10;;;;;;;;;;4985391;28;20168;-68
2022/01/04 07:43:55;;;;;;;5.03;0.90;;;;;;;;;;4985327;28;20153;-68
2022/01/04 07:46:25;;;;;;;4.10;1.20;;;;;;;;;;4986407;28;20137;-67
2022/01/04 07:48:54;;;;;;;2.05;0.95;;;;;;;;;;4979938;28;20056;-70
2022/01/04 07:51:24;;;;;;;3.13;1.20;;;;;;;;;;4982772;28;20049;-68
2022/01/04 07:53:52;;;;;;;2.42;0.65;;;;;;;;;;4985941;28;20050;-68
2022/01/04 07:56:24;;;;;;;2.83;1.48;;;;;;;;;;4981429;28;20509;-68
2022/01/04 07:58:54;;;;;;;3.53;1.00;;;;;;;;;;4982031;28;20097;-69
2022/01/04 08:01:29;;;;;;;5.15;1.20;;;;;;;;;;4984093;28;20057;-68
2022/01/04 08:04:00;;;;;;;1.60;0.98;;;;;;;;;;4986038;28;20442;-68
2022/01/04 08:06:29;;;;;;;2.20;0.70;;;;;;;;;;4979304;28;20055;-68
2022/01/04 08:08:58;;;;;;;2.80;1.27;;;;;;;;;;4986714;28;20077;-70
2022/01/04 08:11:38;;;;;;;1.40;0.73;;;;;;;;;;4983764;28;20422;-68
2022/01/04 08:14:08;;;;;;;2.92;0.95;;;;;;;;;;4983968;28;20075;-69
2022/01/04 08:16:37;;;;;;;1.98;1.00;;;;;;;;;;4986626;28;20081;-69
2022/01/04 08:19:05;;;;;;;1.52;0.90;;;;;;;;;;4985398;28;20054;-69
2022/01/04 08:21:36;;;;;;;2.92;0.80;;;;;;;;;;4989778;28;20065;-69
2022/01/04 08:24:06;;;;;;;1.83;0.73;;;;;;;;;;4992214;28;20097;-68
2022/01/04 08:26:36;;;;;;;3.28;0.65;;;;;;;;;;4988052;28;20462;-68
2022/01/04 08:29:04;;;;;;;1.13;0.60;;;;;;;;;;4991084;28;20490;-68
2022/01/04 08:31:33;;;;;;;2.00;0.50;;;;;;;;;;4991387;28;20405;-70
2022/01/04 08:34:01;;;;;;;0.68;0.43;;;;;;;;;;4987015;28;20050;-69
2022/01/04 08:36:30;;;;;;;0.35;0.35;;;;;;;;;;4991890;28;20050;-68
2022/01/04 08:39:00;;;;;;;1.27;0.70;;;;;;;;;;4992223;28;20046;-69
2022/01/04 08:41:28;;;;;;;1.35;0.50;;;;;;;;;;4986878;28;20054;-69
2022/01/04 08:43:57;;;;;;;1.40;0.55;;;;;;;;;;4990443;28;20098;-68
2022/01/04 08:46:33;;;;;;;1.55;0.70;;;;;;;;;;4985650;28;20050;-68
2022/01/04 08:49:02;;;;;;;0.75;0.38;;;;;;;;;;4992261;28;20483;-68
2022/01/04 08:51:31;;;;;;;0.55;0.35;;;;;;;;;;4985659;28;20165;-70
2022/01/04 08:54:01;;;;;;;2.42;0.60;;;;;;;;;;4991124;28;20050;-69
2022/01/04 08:56:33;;;;;;;1.63;0.40;;;;;;;;;;4989278;28;20409;-68
2022/01/04 08:59:03;;;;;;;0.50;0.32;;;;;;;;;;4982599;28;20537;-68
2022/01/04 09:01:32;;;;;;;1.50;0.40;;;;;;;;;;4989969;28;20532;-68
2022/01/04 09:04:01;;;;;;;1.02;0.52;;;;;;;;;;4993029;28;20050;-69
2022/01/04 09:06:29;;;;;;;1.13;0.40;;;;;;;;;;4990451;28;20391;-69
2022/01/04 09:08:58;;;;;;;1.27;0.52;;;;;;;;;;4986916;28;20057;-69
2022/01/04 09:11:28;;;;;;;1.60;0.50;;;;;;;;;;4987145;28;20082;-69
2022/01/04 09:14:12;;;;;;;0.60;0.43;;;;;;;;;;4981810;28;20090;-68
2022/01/04 09:19:29;;;;;;;2.53;0.30;;;;;;;;;;4990081;28;20049;-70
2022/01/04 09:21:58;;;;;;;2.65;0.43;;;;;;;;;;4986997;28;20141;-71
2022/01/04 09:24:26;;;;;;;1.10;0.57;;;;;;;;;;4988930;28;20502;-71
2022/01/04 09:26:56;;;;;;;0.47;0.38;;;;;;;;;;4983810;28;20050;-69
2022/01/04 09:29:25;;;;;;;0.93;0.40;;;;;;;;;;4988518;28;20133;-70
2022/01/04 09:31:55;;;;;;;1.45;0.50;;;;;;;;;;4986879;28;20059;-69
2022/01/04 09:34:23;;;;;;;0.98;0.30;;;;;;;;;;4990830;28;20051;-69
2022/01/04 09:36:52;;;;;;;1.98;0.40;;;;;;;;;;4988799;28;20078;-69
2022/01/04 09:39:22;;;;;;;1.05;0.50;;;;;;;;;;4988066;28;20058;-69
2022/01/04 09:41:51;;;;;;;1.70;0.52;;;;;;;;;;4989567;28;20042;-69
2022/01/04 09:44:22;;;;;;;1.17;0.52;;;;;;;;;;4988507;28;20058;-69
2022/01/04 09:46:50;;;;;;;2.15;0.60;;;;;;;;;;4990101;28;20046;-71
2022/01/04 09:49:31;;;;;;;0.88;0.50;;;;;;;;;;4246094;28;10001259;-69
2022/01/04 09:52:00;;;;;;;1.10;0.63;;;;;;;;;;1698902;29;10001932;-69
2022/01/04 09:54:40;;;;;;;1.50;0.55;;;;;;;;;;3325022;28;10022511;-69
2022/01/04 09:57:09;;;;;;;1.58;0.90;;;;;;;;;;2578037;28;10001941;-69
2022/01/04 09:59:39;;;;;;;2.10;0.70;;;;;;;;;;4986345;28;20074;-69
2022/01/04 10:02:15;;;;;;;1.63;0.88;;;;;;;;;;4986288;28;20058;-69
2022/01/04 10:04:43;;;;;;;2.78;0.90;;;;;;;;;;4982603;28;20135;-70
2022/01/04 10:07:12;;;;;;;2.08;0.63;;;;;;;;;;4981456;28;20692;-70
2022/01/04 10:09:44;;;;;;;1.67;0.68;;;;;;;;;;4986962;28;20630;-69
2022/01/04 10:12:14;;;;;;;3.97;0.57;;;;;;;;;;4985899;28;20074;-70
2022/01/04 10:14:46;;;;;;;1.63;0.60;;;;;;;;;;4982196;28;20050;-70
2022/01/04 10:17:16;;;;;;;0.93;0.63;;;;;;;;;;4984516;28;20445;-69
2022/01/04 10:19:46;;;;;;;1.45;0.68;;;;;;;;;;4982923;28;20448;-69
2022/01/04 10:22:22;;;;;;;1.80;0.57;;;;;;;;;;4985713;28;20054;-69
2022/01/04 10:25:08;;;;;;;1.10;0.60;;;;;;;;;;4980649;28;20097;-69
2022/01/04 10:27:38;;;;;;;1.27;0.52;;;;;;;;;;4986885;28;20100;-69
2022/01/04 10:30:25;;;;;;;1.77;0.73;;;;;;;;;;4987333;28;20546;-69
2022/01/04 10:32:57;;;;;;;1.52;0.70;;;;;;;;;;4987536;28;20557;-69
2022/01/04 10:35:30;;;;;;;1.85;0.70;;;;;;;;;;4982678;28;20134;-69
2022/01/04 10:37:59;;;;;;;1.08;0.70;;;;;;;;;;4987852;28;20120;-69
2022/01/04 10:40:29;;;;;;;0.68;0.50;;;;;;;;;;4975289;28;20058;-68
2022/01/04 10:43:07;;;;;;;0.65;0.40;;;;;;;;;;4988280;28;20495;-68
2022/01/04 10:45:37;;;;;;;1.05;0.30;;;;;;;;;;4979908;28;20141;-69
2022/01/04 10:48:17;;;;;;;0.82;0.65;;;;;;;;;;4982677;28;20061;-68
2022/01/04 10:50:47;;;;;;;0.45;0.40;;;;;;;;;;4986016;28;20414;-69
2022/01/04 10:53:19;;;;;;;0.60;0.50;;;;;;;;;;4984010;28;20108;-70
2022/01/04 10:55:49;;;;;;;2.53;0.60;;;;;;;;;;4983221;28;20053;-69
2022/01/04 10:58:22;;;;;;;1.13;0.57;;;;;;;;;;4984413;28;20058;-69
2022/01/04 11:00:51;;;;;;;1.20;0.47;;;;;;;;;;4978059;28;20144;-70
2022/01/04 11:03:25;;;;;;;0.40;0.40;;;;;;;;;;4984587;28;20054;-68
2022/01/04 11:05:54;;;;;;;1.47;0.57;;;;;;;;;;4983979;28;20050;-69
2022/01/04 11:08:23;;;;;;;1.77;0.70;;;;;;;;;;4985186;28;20046;-70
2022/01/04 11:10:53;;;;;;;0.65;0.40;;;;;;;;;;4985205;28;20502;-70
2022/01/04 11:13:21;;;;;;;0.80;0.50;;;;;;;;;;4984328;28;20061;-71
2022/01/04 11:15:54;;;;;;;1.83;0.55;;;;;;;;;;4986270;28;20490;-72
2022/01/04 11:18:23;;;;;;;2.47;0.63;;;;;;;;;;4976492;28;20145;-70
2022/01/04 11:20:53;;;;;;;0.50;0.50;;;;;;;;;;4986235;28;20105;-71
2022/01/04 11:23:24;;;;;;;1.70;0.57;;;;;;;;;;4986459;28;20054;-70
2022/01/04 11:25:53;;;;;;;0.30;0.30;;;;;;;;;;4986987;28;20051;-71
2022/01/04 11:28:42;;;;;;;1.00;0.83;;;;;;;;;;2574170;28;10003974;-71
2022/01/04 11:31:31;;;;;;;0.70;0.45;;;;;;;;;;3607994;28;10001640;-70
2022/01/04 11:34:01;;;;;;;0.55;0.40;;;;;;;;;;4980372;28;20399;-70
2022/01/04 11:36:35;;;;;;;0.82;0.60;;;;;;;;;;4984329;28;20054;-69
2022/01/04 11:39:04;;;;;;;1.80;0.57;;;;;;;;;;4984080;28;20565;-69
2022/01/04 11:41:42;;;;;;;0.40;0.40;;;;;;;;;;4982105;28;20050;-69
2022/01/04 11:44:19;;;;;;;1.23;0.70;;;;;;;;;;4977484;28;20054;-73
2022/01/04 11:46:59;;;;;;;1.00;0.50;;;;;;;;;;4977657;28;20046;-70
2022/01/04 11:49:28;;;;;;;0.93;0.40;;;;;;;;;;4982382;28;20830;-70
2022/01/04 11:51:58;;;;;;;1.95;0.60;;;;;;;;;;4981085;28;20094;-73
2022/01/04 11:54:29;;;;;;;1.25;0.60;;;;;;;;;;4982206;28;20086;-70
2022/01/04 11:56:59;;;;;;;0.50;0.40;;;;;;;;;;4987308;28;20046;-69
2022/01/04 11:59:28;;;;;;;1.48;0.60;;;;;;;;;;4983454;28;20082;-69
2022/01/04 12:01:56;;;;;;;0.93;0.60;;;;;;;;;;4980110;28;20073;-69
2022/01/04 12:04:43;;;;;;;0.93;0.50;;;;;;;;;;4973654;28;20474;-68
2022/01/04 12:07:13;;;;;;;1.20;0.68;;;;;;;;;;4982721;28;20042;-70
2022/01/04 12:09:41;;;;;;;0.73;0.55;;;;;;;;;;4986113;28;20141;-68
2022/01/04 12:12:10;;;;;;;1.20;0.70;;;;;;;;;;4984316;28;20086;-69
2022/01/04 12:14:38;;;;;;;0.70;0.65;;;;;;;;;;4986054;28;20134;-68
2022/01/04 12:17:12;;;;;;;0.95;0.50;;;;;;;;;;4982983;28;20622;-69
2022/01/04 12:19:48;;;;;;;0.90;0.40;;;;;;;;;;4982751;28;20046;-68
2022/01/04 12:22:16;;;;;;;;;;;;;;;;;;4977479;28;20157;-68
2022/01/04 12:24:47;;;;;;;0.93;0.45;;;;;;;;;;4982488;28;19973;-69
2022/01/04 12:27:16;;;;;;;1.40;0.65;;;;;;;;;;4984531;28;20112;-70
2022/01/04 12:29:44;;;;;;;2.15;0.40;;;;;;;;;;4982044;28;20582;-68
2022/01/04 12:32:21;;;;;;;1.15;0.68;;;;;;;;;;4983363;28;20133;-70
2022/01/04 12:35:08;;;;;;;0.60;0.52;;;;;;;;;;1131782;28;10022455;-68
2022/01/04 12:37:37;;;;;;;0.88;0.60;;;;;;;;;;4639496;28;10001230;-69
2022/01/04 12:40:07;;;;;;;0.77;0.50;;;;;;;;;;4983705;28;20101;-69
2022/01/04 12:42:36;;;;;;;0.98;0.60;;;;;;;;;;4981838;28;20062;-71
2022/01/04 12:45:07;;;;;;;1.75;0.57;;;;;;;;;;4974801;28;20076;-73
2022/01/04 12:47:36;;;;;;;0.75;0.60;;;;;;;;;;4978474;28;20081;-68
2022/01/04 12:50:07;;;;;;;1.33;0.60;;;;;;;;;;4978343;28;20105;-69
2022/01/04 12:52:35;;;;;;;1.08;0.60;;;;;;;;;;4983986;28;20406;-68
2022/01/04 12:55:11;;;;;;;1.92;0.70;;;;;;;;;;4981807;28;20089;-70
2022/01/04 12:57:40;;;;;;;1.08;0.60;;;;;;;;;;4982750;28;20141;-69
2022/01/04 13:00:14;;;;;;;0.70;0.40;;;;;;;;;;4984934;28;20042;-69
2022/01/04 13:02:43;;;;;;;1.27;0.65;;;;;;;;;;4973298;28;20050;-70
2022/01/04 13:05:15;;;;;;;2.05;0.73;;;;;;;;;;4978190;28;20043;-68
2022/01/04 13:07:45;;;;;;;1.30;0.60;;;;;;;;;;4984581;28;20046;-71
2022/01/04 13:10:15;;;;;;;4.35;0.75;;;;;;;;;;4986883;28;20042;-70
2022/01/04 13:12:45;;;;;;;1.02;0.65;;;;;;;;;;4985946;28;20517;-68
2022/01/04 13:15:14;;;;;;;1.23;0.75;;;;;;;;;;4981938;28;20086;-71
2022/01/04 13:17:44;;;;;;;1.23;0.65;;;;;;;;;;4986706;28;20046;-70
2022/01/04 13:20:14;;;;;;;0.93;0.52;;;;;;;;;;4984589;28;20046;-70
2022/01/04 13:22:42;;;;;;;0.65;0.55;;;;;;;;;;4980673;28;20055;-70
2022/01/04 13:25:11;;;;;;;3.17;0.75;;;;;;;;;;4987259;28;20050;-69
2022/01/04 13:27:41;;;;;;;1.70;0.70;;;;;;;;;;4986897;28;20089;-68
2022/01/04 13:30:14;;;;;;;1.77;0.75;;;;;;;;;;4986553;28;20050;-70
2022/01/04 13:32:46;;;;;;;0.77;0.55;;;;;;;;;;4985714;28;20490;-71
2022/01/04 13:35:17;;;;;;;1.65;0.80;;;;;;;;;;4986017;28;20134;-69
2022/01/04 13:37:47;;;;;;;2.65;0.75;;;;;;;;;;4979003;28;20050;-68
2022/01/04 13:40:16;;;;;;;1.23;0.68;;;;;;;;;;4983773;28;20062;-68
2022/01/04 13:42:48;;;;;;;2.28;0.70;;;;;;;;;;4979890;28;20054;-70
2022/01/04 13:45:18;;;;;;;1.33;0.60;;;;;;;;;;4985677;28;20058;-69
2022/01/04 13:47:49;;;;;;;1.30;0.70;;;;;;;;;;4989814;28;20050;-69
2022/01/04 13:50:24;;;;;;;1.48;0.55;;;;;;;;;;4986680;28;20581;-72
2022/01/04 13:53:04;;;;;;;1.77;0.93;;;;;;;;;;4986964;28;20105;-73
2022/01/04 13:55:47;;;;;;;1.35;0.77;;;;;;;;;;4986800;28;20039;-69
2022/01/04 13:58:30;;;;;;;0.85;0.70;;;;;;;;;;4989957;28;20073;-68
2022/01/04 14:01:24;;;;;;;1.70;0.95;;;;;;;;;;4981277;28;20048;-71
2022/01/04 14:03:55;;;;;;;1.88;0.90;;;;;;;;;;4982881;28;20108;-73
2022/01/04 14:06:35;;;;;;;1.83;0.88;;;;;;;;;;4989637;28;20085;-69
2022/01/04 14:09:05;;;;;;;1.20;0.60;;;;;;;;;;4987344;28;20050;-68
2022/01/04 14:11:38;;;;;;;1.90;0.73;;;;;;;;;;4988945;28;20050;-70
2022/01/04 14:14:08;;;;;;;1.17;0.80;;;;;;;;;;4989353;28;20089;-68
2022/01/04 14:16:46;;;;;;;1.70;0.90;;;;;;;;;;4988990;28;20078;-68
2022/01/04 14:19:15;;;;;;;1.25;0.80;;;;;;;;;;4985434;28;20417;-69
2022/01/04 14:21:45;;;;;;;1.13;0.73;;;;;;;;;;4982043;28;20046;-71
2022/01/04 14:24:33;;;;;;;1.50;0.90;;;;;;;;;;4992440;28;20085;-72
2022/01/04 14:27:02;;;;;;;1.27;0.82;;;;;;;;;;4988524;28;20465;-69
2022/01/04 14:29:31;;;;;;;2.30;1.23;;;;;;;;;;4986786;28;20093;-69
2022/01/04 14:32:05;;;;;;;3.17;1.00;;;;;;;;;;4987093;28;20057;-69
2022/01/04 14:34:37;;;;;;;2.10;0.82;;;;;;;;;;4975552;28;20070;-71
2022/01/04 14:37:06;;;;;;;1.63;0.82;;;;;;;;;;4982817;28;20521;-69
2022/01/04 14:39:35;;;;;;;2.03;1.20;;;;;;;;;;4989297;28;20038;-68
2022/01/04 14:42:06;;;;;;;3.10;1.10;;;;;;;;;;4984962;28;20748;-69
2022/01/04 14:44:35;;;;;;;2.30;1.10;;;;;;;;;;4982748;28;20089;-68
2022/01/04 14:47:06;;;;;;;5.47;1.45;;;;;;;;;;4988837;28;20121;-69
2022/01/04 14:49:36;;;;;;;4.18;1.10;;;;;;;;;;4986348;28;20054;-68
2022/01/04 14:52:06;;;;;;;2.30;1.30;;;;;;;;;;4987516;28;21904;-68
2022/01/04 14:54:35;;;;;;;2.75;1.30;;;;;;;;;;4986394;28;20066;-71
2022/01/04 14:57:03;;;;;;;2.60;1.13;;;;;;;;;;4989250;28;20691;-69
2022/01/04 14:59:32;;;;;;;1.60;0.80;;;;;;;;;;4985058;28;20443;-70
2022/01/04 15:02:01;;;;;;;2.53;1.00;;;;;;;;;;4988160;28;20046;-69
2022/01/04 15:04:31;;;;;;;1.20;0.80;;;;;;;;;;4980495;28;20046;-69
2022/01/04 15:06:59;;;;;;;1.60;1.00;;;;;;;;;;4984363;28;20074;-68
2022/01/04 15:09:28;;;;;;;3.28;1.25;;;;;;;;;;4987710;28;20105;-66
2022/01/04 15:11:56;;;;;;;1.75;1.00;;;;;;;;;;4985949;28;20553;-67